createdAt,value
2018-09-15T00:04:55.226Z,3.00
2018-09-15T00:07:26.818Z,4.80
2018-09-15T00:09:58.307Z,4.50
2018-09-15T00:12:29.738Z,4.07
2018-09-15T00:15:01.317Z,3.10
2018-09-15T00:17:32.819Z,2.90
2018-09-15T00:20:04.390Z,5.50
2018-09-15T00:22:35.810Z,3.20
2018-09-15T00:25:07.786Z,3.27
2018-09-15T00:27:39.308Z,4.60
2018-09-15T00:30:10.849Z,4.17
2018-09-15T00:32:42.387Z,3.93
2018-09-15T00:35:13.972Z,3.00
2018-09-15T00:37:45.668Z,2.70
2018-09-15T00:40:17.431Z,4.93
2018-09-15T00:42:49.193Z,3.57
2018-09-15T00:45:20.794Z,3.60
2018-09-15T00:47:52.286Z,4.83
2018-09-15T00:50:23.748Z,4.80
2018-09-15T00:52:55.410Z,3.07
2018-09-15T00:55:26.804Z,3.30
2018-09-15T00:57:58.435Z,4.43
2018-09-15T01:00:30.670Z,2.53
2018-09-15T01:03:02.229Z,4.10
2018-09-15T01:05:33.765Z,3.10
2018-09-15T01:08:05.356Z,3.60
2018-09-15T01:10:36.985Z,3.03
2018-09-15T01:13:08.645Z,3.37
2018-09-15T01:15:40.225Z,3.20
2018-09-15T01:18:12.217Z,3.90
2018-09-15T01:20:43.762Z,4.10
2018-09-15T01:23:15.377Z,3.90
2018-09-15T01:25:46.828Z,5.10
2018-09-15T01:28:18.311Z,3.83
2018-09-15T01:30:49.835Z,4.67
2018-09-15T01:33:21.327Z,4.37
2018-09-15T01:35:52.906Z,2.83
2018-09-15T01:40:55.213Z,3.97
2018-09-15T01:43:26.749Z,4.57
2018-09-15T01:45:57.897Z,3.03
2018-09-15T01:50:59.519Z,5.07
2018-09-15T01:53:30.623Z,3.00
2018-09-15T01:56:02.318Z,3.77
2018-09-15T01:58:33.739Z,3.67
2018-09-15T02:01:05.232Z,3.33
2018-09-15T02:03:36.723Z,2.80
2018-09-15T02:06:08.300Z,4.03
2018-09-15T02:08:39.791Z,5.30
2018-09-15T02:11:11.400Z,4.70
2018-09-15T02:13:42.888Z,4.40
2018-09-15T02:18:45.228Z,3.30
2018-09-15T02:21:16.830Z,3.60
2018-09-15T02:23:48.313Z,3.83
2018-09-15T02:26:19.821Z,5.23
2018-09-15T02:28:51.432Z,2.50
2018-09-15T02:31:23.068Z,3.70
2018-09-15T02:33:54.690Z,3.73
2018-09-15T02:36:26.310Z,5.37
2018-09-15T02:38:57.803Z,4.67
2018-09-15T02:41:28.986Z,3.23
2018-09-15T02:44:00.535Z,4.50
2018-09-15T02:46:32.079Z,5.67
2018-09-15T02:49:03.724Z,4.67
2018-09-15T02:51:35.319Z,4.50
2018-09-15T02:54:06.751Z,2.97
2018-09-15T02:56:38.384Z,5.10
2018-09-15T02:59:10.000Z,3.40
2018-09-15T03:01:41.665Z,3.40
2018-09-15T03:04:13.221Z,5.77
2018-09-15T03:06:44.756Z,4.07
2018-09-15T03:09:16.377Z,3.93
2018-09-15T03:11:47.768Z,3.60
2018-09-15T03:14:19.372Z,4.53
2018-09-15T03:16:50.770Z,3.03
2018-09-15T03:19:22.302Z,5.50
2018-09-15T03:21:53.816Z,3.80
2018-09-15T03:24:25.285Z,5.40
2018-09-15T03:26:56.767Z,5.57
2018-09-15T03:29:28.230Z,4.87
2018-09-15T03:31:59.781Z,4.00
2018-09-15T03:34:31.202Z,3.20
2018-09-15T03:37:02.801Z,4.77
2018-09-15T03:39:34.407Z,4.83
2018-09-15T03:42:05.829Z,3.40
2018-09-15T03:44:37.396Z,5.80
2018-09-15T03:47:09.031Z,4.57
2018-09-15T03:49:40.714Z,3.00
2018-09-15T03:52:12.300Z,3.73
2018-09-15T03:54:43.770Z,3.90
2018-09-15T03:57:15.222Z,3.33
2018-09-15T03:59:46.796Z,5.17
2018-09-15T04:02:18.449Z,4.43
2018-09-15T04:04:49.794Z,4.63
2018-09-15T04:07:21.290Z,3.23
2018-09-15T04:09:52.771Z,4.17
2018-09-15T04:12:24.276Z,3.43
2018-09-15T04:14:55.834Z,4.40
2018-09-15T04:17:27.481Z,3.50
2018-09-15T04:19:59.500Z,3.67
2018-09-15T04:22:31.225Z,3.03
2018-09-15T04:25:02.835Z,5.53
2018-09-15T04:27:34.291Z,3.70
2018-09-15T04:30:06.203Z,4.07
2018-09-15T04:32:37.662Z,3.33
2018-09-15T04:35:09.357Z,4.50
2018-09-15T04:37:40.759Z,5.10
2018-09-15T04:40:12.365Z,4.53
2018-09-15T04:42:43.896Z,4.03
2018-09-15T04:47:45.970Z,4.30
2018-09-15T04:50:17.545Z,3.77
2018-09-15T04:52:49.256Z,5.30
2018-09-15T04:55:20.722Z,5.70
2018-09-15T04:57:52.698Z,3.60
2018-09-15T05:00:24.335Z,4.10
2018-09-15T05:02:55.825Z,3.90
2018-09-15T05:05:27.291Z,3.77
2018-09-15T05:07:58.735Z,3.50
2018-09-15T05:10:30.384Z,3.70
2018-09-15T05:13:01.878Z,3.13
2018-09-15T05:15:33.747Z,4.47
2018-09-15T05:18:05.293Z,5.00
2018-09-15T05:20:37.441Z,3.23
2018-09-15T05:23:09.402Z,3.80
2018-09-15T05:25:40.735Z,3.80
2018-09-15T05:28:12.207Z,3.57
2018-09-15T05:30:43.716Z,4.87
2018-09-15T05:33:15.363Z,3.77
2018-09-15T05:35:46.727Z,3.40
2018-09-15T05:38:18.207Z,5.50
2018-09-15T05:40:49.784Z,5.67
2018-09-15T05:43:21.265Z,4.73
2018-09-15T05:45:52.777Z,3.70
2018-09-15T05:48:24.298Z,4.80
2018-09-15T05:50:55.792Z,5.07
2018-09-15T05:53:27.321Z,3.50
2018-09-15T05:55:59.207Z,3.93
2018-09-15T05:58:30.763Z,5.83
2018-09-15T06:01:02.295Z,3.90
2018-09-15T06:03:33.782Z,4.57
2018-09-15T06:06:05.597Z,4.50
2018-09-15T06:08:37.205Z,5.80
2018-09-15T06:11:09.184Z,6.03
2018-09-15T06:16:16.699Z,4.43
2018-09-15T06:18:48.332Z,5.90
2018-09-15T06:21:19.776Z,3.27
2018-09-15T06:23:51.031Z,5.40
2018-09-15T06:28:53.209Z,4.20
2018-09-15T06:31:24.729Z,6.10
2018-09-15T06:33:56.401Z,5.63
2018-09-15T06:36:27.977Z,5.00
2018-09-15T06:38:59.688Z,6.27
2018-09-15T06:41:31.219Z,5.20
2018-09-15T06:44:02.772Z,4.33
2018-09-15T06:46:34.346Z,4.87
2018-09-15T06:49:05.858Z,4.90
2018-09-15T06:51:37.541Z,6.55
2018-09-15T06:54:09.190Z,3.97
2018-09-15T06:56:40.827Z,4.03
2018-09-15T06:59:12.295Z,4.10
2018-09-15T07:01:43.783Z,6.53
2018-09-15T07:04:15.437Z,5.07
2018-09-15T07:06:46.960Z,3.67
2018-09-15T07:09:18.496Z,3.60
2018-09-15T07:11:49.880Z,4.30
2018-09-15T07:16:51.876Z,5.67
2018-09-15T07:21:53.912Z,3.10
2018-09-15T07:29:26.968Z,5.43
2018-09-15T07:31:58.615Z,3.13
2018-09-15T07:34:29.868Z,2.33
2018-09-15T07:37:01.245Z,4.70
2018-09-15T07:39:32.621Z,5.70
2018-09-15T07:42:04.218Z,3.93
2018-09-15T07:44:35.790Z,2.80
2018-09-15T07:47:08.485Z,2.33
2018-09-15T07:49:40.002Z,2.80
2018-09-15T07:52:11.582Z,3.27
2018-09-15T07:54:43.204Z,2.57
2018-09-15T07:57:14.743Z,2.30
2018-09-15T07:59:45.888Z,2.27
2018-09-15T08:02:20.034Z,2.20
2018-09-15T08:04:52.305Z,4.47
2018-09-15T08:07:23.786Z,2.93
2018-09-15T08:09:55.409Z,3.00
2018-09-15T08:12:26.819Z,1.80
2018-09-15T08:14:58.312Z,3.00
2018-09-15T08:17:29.784Z,2.40
2018-09-15T08:20:01.367Z,2.00
2018-09-15T08:22:32.914Z,2.00
2018-09-15T08:27:35.204Z,1.90
2018-09-15T08:30:07.302Z,1.90
2018-09-15T08:32:38.717Z,2.20
2018-09-15T08:35:10.313Z,2.07
2018-09-15T08:37:41.780Z,2.00
2018-09-15T08:40:13.373Z,1.90
2018-09-15T08:42:44.927Z,1.93
2018-09-15T08:45:16.677Z,1.90
2018-09-15T08:47:48.306Z,1.90
2018-09-15T08:50:19.727Z,2.00
2018-09-15T08:52:51.434Z,1.50
2018-09-15T08:55:23.202Z,1.90
2018-09-15T08:57:54.778Z,1.77
2018-09-15T09:00:26.639Z,1.90
2018-09-15T09:02:58.226Z,1.83
2018-09-15T09:05:32.922Z,1.87
2018-09-15T09:08:04.752Z,2.00
2018-09-15T09:10:36.715Z,2.17
2018-09-15T09:13:08.345Z,1.80
2018-09-15T09:15:40.220Z,2.10
2018-09-15T09:18:11.807Z,1.50
2018-09-15T09:20:43.017Z,1.73
2018-09-15T09:23:14.631Z,1.63
2018-09-15T09:25:46.269Z,1.80
2018-09-15T09:28:17.946Z,1.90
2018-09-15T09:30:49.568Z,1.80
2018-09-15T09:33:20.945Z,1.90
2018-09-15T09:35:52.396Z,2.10
2018-09-15T09:38:23.961Z,2.00
2018-09-15T09:40:55.703Z,1.70
2018-09-15T09:43:27.388Z,1.80
2018-09-15T09:45:58.815Z,2.00
2018-09-15T09:48:30.020Z,1.70
2018-09-15T09:51:01.385Z,1.70
2018-09-15T09:53:33.042Z,1.80
2018-09-15T09:56:04.785Z,1.80
2018-09-15T09:58:35.912Z,1.77
2018-09-15T10:06:14.226Z,1.90
2018-09-15T10:08:45.835Z,1.73
2018-09-15T10:11:17.566Z,1.80
2018-09-15T10:13:48.880Z,1.63
2018-09-15T10:16:20.499Z,1.70
2018-09-15T10:18:51.768Z,1.90
2018-09-15T10:21:23.901Z,1.70
2018-09-15T10:23:55.562Z,1.70
2018-09-15T10:26:26.915Z,1.67
2018-09-15T10:31:29.015Z,1.87
2018-09-15T10:34:00.527Z,1.70
2018-09-15T10:36:31.921Z,2.00
2018-09-15T10:41:34.219Z,1.90
2018-09-15T10:44:05.921Z,1.70
2018-09-15T10:49:08.223Z,1.73
2018-09-15T10:51:40.440Z,1.70
2018-09-15T10:54:12.068Z,1.77
2018-09-15T10:56:43.716Z,1.80
2018-09-15T10:59:15.294Z,1.90
2018-09-15T11:01:47.005Z,1.90
2018-09-15T11:04:18.650Z,1.77
2018-09-15T11:06:50.203Z,1.60
2018-09-15T11:09:21.731Z,1.70
2018-09-15T11:11:52.784Z,1.50
2018-09-15T11:14:23.888Z,1.50
2018-09-15T11:19:26.035Z,1.50
2018-09-15T11:21:57.796Z,1.70
2018-09-15T11:24:29.309Z,1.80
2018-09-15T11:27:00.797Z,1.73
2018-09-15T11:29:32.269Z,1.50
2018-09-15T11:32:04.299Z,1.60
2018-09-15T11:34:35.908Z,1.60
2018-09-15T11:39:38.227Z,1.63
2018-09-15T11:42:09.780Z,1.40
2018-09-15T11:44:41.241Z,1.73
2018-09-15T11:47:12.733Z,1.50
2018-09-15T11:49:44.222Z,1.53
2018-09-15T11:52:16.004Z,1.60
2018-09-15T11:57:54.895Z,1.60
2018-09-15T12:00:31.193Z,1.70
2018-09-15T12:03:02.419Z,1.77
2018-09-15T12:05:33.844Z,1.70
2018-09-15T12:08:05.589Z,1.70
2018-09-15T12:10:37.220Z,1.60
2018-09-15T12:13:08.793Z,1.60
2018-09-15T12:15:40.312Z,1.50
2018-09-15T12:18:11.747Z,1.60
2018-09-15T12:20:43.917Z,1.63
2018-09-15T12:25:46.240Z,1.40
2018-09-15T12:28:17.773Z,1.50
2018-09-15T12:30:49.456Z,1.50
2018-09-15T12:33:21.010Z,1.37
2018-09-15T12:35:52.511Z,1.73
2018-09-15T12:38:24.304Z,1.50
2018-09-15T12:40:55.813Z,1.50
2018-09-15T12:43:27.400Z,1.50
2018-09-15T12:45:58.811Z,1.77
2018-09-15T12:48:30.436Z,1.30
2018-09-15T12:51:01.820Z,1.50
2018-09-15T12:53:33.458Z,1.67
2018-09-15T12:56:04.776Z,1.70
2018-09-15T12:58:35.887Z,1.70
2018-09-15T13:03:37.855Z,1.53
2018-09-15T13:06:09.680Z,2.00
2018-09-15T13:08:41.325Z,1.50
2018-09-15T13:11:12.792Z,1.70
2018-09-15T13:13:44.288Z,1.60
2018-09-15T13:16:15.780Z,1.43
2018-09-15T13:18:47.320Z,1.60
2018-09-15T13:21:18.764Z,1.40
2018-09-15T13:23:50.394Z,1.50
2018-09-15T13:26:21.775Z,1.50
2018-09-15T13:28:53.320Z,1.50
2018-09-15T13:31:24.739Z,1.60
2018-09-15T13:33:56.389Z,1.43
2018-09-15T13:36:27.877Z,1.40
2018-09-15T13:41:30.232Z,1.60
2018-09-15T13:44:01.496Z,1.40
2018-09-15T13:46:32.942Z,1.60
2018-09-15T13:49:04.528Z,1.47
2018-09-15T13:51:36.246Z,1.43
2018-09-15T13:54:07.762Z,1.50
2018-09-15T13:56:39.388Z,1.53
2018-09-15T13:59:10.886Z,1.40
2018-09-15T14:04:13.243Z,1.30
2018-09-15T14:06:44.739Z,1.33
2018-09-15T14:09:16.228Z,1.40
2018-09-15T14:14:57.004Z,1.50
2018-09-15T14:17:28.709Z,1.50
2018-09-15T14:20:00.488Z,1.60
2018-09-15T14:22:32.246Z,1.20
2018-09-15T14:25:03.772Z,1.47
2018-09-15T14:27:36.230Z,1.47
2018-09-15T14:30:08.622Z,1.40
2018-09-15T14:32:40.223Z,1.50
2018-09-15T14:35:11.721Z,1.40
2018-09-15T14:37:43.316Z,1.70
2018-09-15T14:40:14.833Z,1.67
2018-09-15T14:42:46.541Z,1.40
2018-09-15T14:45:18.443Z,1.40
2018-09-15T14:47:50.010Z,1.43
2018-09-15T14:50:21.681Z,1.50
2018-09-15T14:52:53.235Z,1.23
2018-09-15T14:58:05.224Z,1.40
2018-09-15T15:00:36.577Z,1.37
2018-09-15T15:03:09.828Z,1.60
2018-09-15T15:05:41.256Z,1.37
2018-09-15T15:08:12.715Z,1.27
2018-09-15T15:10:44.313Z,1.50
2018-09-15T15:13:15.872Z,1.37
2018-09-15T15:15:47.453Z,1.50
2018-09-15T15:18:19.229Z,1.60
2018-09-15T15:20:50.694Z,1.40
2018-09-15T15:23:22.210Z,1.30
2018-09-15T15:25:53.709Z,1.30
2018-09-15T15:28:25.420Z,1.30
2018-09-15T15:30:56.873Z,1.37
2018-09-15T15:33:28.375Z,1.20
2018-09-15T15:35:59.865Z,1.53
2018-09-15T15:38:31.559Z,1.40
2018-09-15T15:41:03.218Z,1.20
2018-09-15T15:43:34.793Z,1.50
2018-09-15T15:46:06.394Z,1.40
2018-09-15T15:48:38.013Z,1.53
2018-09-15T15:51:09.715Z,1.33
2018-09-15T15:53:40.712Z,1.37
2018-09-15T15:56:12.374Z,1.40
2018-09-15T15:58:44.034Z,1.50
2018-09-15T16:03:46.203Z,1.40
2018-09-15T16:06:17.727Z,1.40
2018-09-15T16:08:49.742Z,1.40
2018-09-15T16:11:21.783Z,1.40
2018-09-15T16:13:53.399Z,1.50
2018-09-15T16:16:25.229Z,1.20
2018-09-15T16:18:56.718Z,1.30
2018-09-15T16:21:28.242Z,1.47
2018-09-15T16:24:00.637Z,1.43
2018-09-15T16:26:32.329Z,1.30
2018-09-15T16:29:03.772Z,1.50
2018-09-15T16:31:35.436Z,1.40
2018-09-15T16:34:06.891Z,1.50
2018-09-15T16:39:12.875Z,1.40
2018-09-15T16:41:44.524Z,1.50
2018-09-15T16:44:16.226Z,1.43
2018-09-15T16:46:47.750Z,1.30
2018-09-15T16:49:18.979Z,1.30
2018-09-15T16:54:21.203Z,1.33
2018-09-15T16:56:53.017Z,1.40
2018-09-15T16:59:24.751Z,1.40
2018-09-15T17:01:56.335Z,1.40
2018-09-15T17:04:27.744Z,1.30
2018-09-15T17:06:59.413Z,1.30
2018-09-15T17:09:30.922Z,1.50
2018-09-15T17:14:32.979Z,1.40
2018-09-15T17:17:04.395Z,1.40
2018-09-15T17:19:36.351Z,1.47
2018-09-15T17:22:07.990Z,1.40
2018-09-15T17:24:39.585Z,1.40
2018-09-15T17:27:11.231Z,1.70
2018-09-15T17:29:42.740Z,1.60
2018-09-15T17:32:14.307Z,1.60
2018-09-15T17:34:45.730Z,1.47
2018-09-15T17:37:17.398Z,1.40
2018-09-15T17:39:48.882Z,1.57
2018-09-15T17:42:20.404Z,1.87
2018-09-15T17:44:51.797Z,1.57
2018-09-15T17:47:23.411Z,1.67
2018-09-15T17:49:54.866Z,1.53
2018-09-15T17:52:26.416Z,1.90
2018-09-15T17:54:58.287Z,1.87
2018-09-15T17:57:29.743Z,1.30
2018-09-15T18:00:01.323Z,2.07
2018-09-15T18:02:32.907Z,2.10
2018-09-15T18:07:34.967Z,2.50
2018-09-15T18:10:06.788Z,2.10
2018-09-15T18:12:38.382Z,2.30
2018-09-15T18:18:02.218Z,2.20
2018-09-15T18:20:34.527Z,1.90
2018-09-15T18:23:05.944Z,1.50
2018-09-15T18:25:37.670Z,1.73
2018-09-15T18:28:09.202Z,1.93
2018-09-15T18:30:40.804Z,1.90
2018-09-15T18:33:12.746Z,2.17
2018-09-15T18:35:44.579Z,2.40
2018-09-15T18:38:16.306Z,1.57
2018-09-15T18:40:47.810Z,2.23
2018-09-15T18:43:19.751Z,2.03
2018-09-15T18:45:51.318Z,1.77
2018-09-15T18:48:22.843Z,1.80
2018-09-15T18:50:54.373Z,1.70
2018-09-15T18:53:25.872Z,1.77
2018-09-15T18:55:57.358Z,1.50
2018-09-15T18:58:28.897Z,1.63
2018-09-15T19:03:31.207Z,2.10
2018-09-15T19:06:02.696Z,1.43
2018-09-15T19:08:34.221Z,1.80
2018-09-15T19:11:05.725Z,1.80
2018-09-15T19:13:37.224Z,1.60
2018-09-15T19:16:09.551Z,2.10
2018-09-15T19:18:41.365Z,2.00
2018-09-15T19:21:12.842Z,1.50
2018-09-15T19:23:44.516Z,1.57
2018-09-15T19:26:15.903Z,2.17
2018-09-15T19:31:18.213Z,2.10
2018-09-15T19:33:49.932Z,1.80
2018-09-15T19:36:21.685Z,1.93
2018-09-15T19:38:53.218Z,1.60
2018-09-15T19:41:24.788Z,1.70
2018-09-15T19:43:56.657Z,2.07
2018-09-15T19:46:27.992Z,1.83
2018-09-15T19:48:59.672Z,1.90
2018-09-15T19:51:31.311Z,1.80
2018-09-15T19:54:02.837Z,1.93
2018-09-15T19:56:34.403Z,1.97
2018-09-15T19:59:05.965Z,2.07
2018-09-15T20:04:07.975Z,1.80
2018-09-15T20:06:39.643Z,2.10
2018-09-15T20:09:12.616Z,1.60
2018-09-15T20:11:44.218Z,2.77
2018-09-15T20:14:15.785Z,2.90
2018-09-15T20:16:44.606Z,2.20
2018-09-15T20:19:13.393Z,1.80
2018-09-15T20:21:42.311Z,1.90
2018-09-15T20:24:13.768Z,2.27
2018-09-15T20:26:45.363Z,1.93
2018-09-15T20:29:16.970Z,2.10
2018-09-15T20:31:48.496Z,2.40
2018-09-15T20:34:19.903Z,2.77
2018-09-15T20:39:22.309Z,2.50
2018-09-15T20:41:53.800Z,2.37
2018-09-15T20:44:25.351Z,2.37
2018-09-15T20:46:56.800Z,2.33
2018-09-15T20:49:28.305Z,4.07
2018-09-15T20:51:59.720Z,2.40
2018-09-15T20:54:31.555Z,4.37
2018-09-15T20:57:02.775Z,5.50
2018-09-15T20:59:34.190Z,3.93
2018-09-15T21:02:05.800Z,5.90
2018-09-15T21:04:37.563Z,2.77
2018-09-15T21:07:09.215Z,3.23
2018-09-15T21:09:40.816Z,3.63
2018-09-15T21:12:12.413Z,4.47
2018-09-15T21:14:43.837Z,4.10
2018-09-15T21:17:15.362Z,5.77
2018-09-15T21:19:47.018Z,3.33
2018-09-15T21:22:18.747Z,3.20
2018-09-15T21:24:50.533Z,4.97
2018-09-15T21:27:22.219Z,4.80
2018-09-15T21:29:53.725Z,4.33
2018-09-15T21:32:25.408Z,5.87
2018-09-15T21:34:57.244Z,5.47
2018-09-15T21:37:28.882Z,4.40
2018-09-15T21:42:31.203Z,9.23
2018-09-15T21:45:02.678Z,5.97
2018-09-15T21:47:34.202Z,6.90
2018-09-15T21:50:05.693Z,4.30
2018-09-15T21:52:37.291Z,6.47
2018-09-15T21:55:09.667Z,5.07
2018-09-15T21:57:41.200Z,7.40
2018-09-15T22:00:13.672Z,6.03
2018-09-15T22:02:45.205Z,6.03
2018-09-15T22:05:16.671Z,5.70
2018-09-15T22:07:48.218Z,4.93
2018-09-15T22:10:19.692Z,6.03
2018-09-15T22:12:51.193Z,4.23
2018-09-15T22:15:28.765Z,5.63
2018-09-15T22:18:00.662Z,8.00
2018-09-15T22:20:32.202Z,4.30
2018-09-15T22:23:03.754Z,6.13
2018-09-15T22:25:35.396Z,4.57
2018-09-15T22:28:06.778Z,6.63
2018-09-15T22:30:38.331Z,8.00
2018-09-15T22:33:09.782Z,5.93
2018-09-15T22:35:41.006Z,6.33
2018-09-15T22:38:12.656Z,8.23
2018-09-15T22:40:44.211Z,8.40
2018-09-15T22:43:15.676Z,6.70
2018-09-15T22:45:47.195Z,5.30
2018-09-15T22:48:18.683Z,8.80
2018-09-15T22:50:50.221Z,5.43
2018-09-15T22:53:21.755Z,4.67
2018-09-15T22:55:53.319Z,4.93
2018-09-15T22:58:24.784Z,4.53
2018-09-15T23:00:56.391Z,5.60
2018-09-15T23:03:27.769Z,4.53
2018-09-15T23:05:59.209Z,6.00
2018-09-15T23:08:30.698Z,4.10
2018-09-15T23:11:02.416Z,4.03
2018-09-15T23:13:33.904Z,4.93
2018-09-15T23:18:36.302Z,5.20
2018-09-15T23:21:08.417Z,5.13
2018-09-15T23:23:39.975Z,3.67
2018-09-15T23:26:11.860Z,3.40
2018-09-15T23:28:43.593Z,3.63
2018-09-15T23:31:15.232Z,5.10
2018-09-15T23:33:46.780Z,4.47
2018-09-15T23:36:18.319Z,4.30
2018-09-15T23:38:49.817Z,3.60
2018-09-15T23:41:21.222Z,4.27
2018-09-15T23:43:52.751Z,4.70
2018-09-15T23:46:24.315Z,3.50
2018-09-15T23:48:55.703Z,4.40
2018-09-15T23:51:27.381Z,5.17
2018-09-15T23:53:58.992Z,4.27
2018-09-15T23:56:30.626Z,4.17
2018-09-15T23:59:02.311Z,5.20
